createdAt,value
2023-01-22T00:04:02.149Z,0.69
2023-01-22T00:10:04.411Z,0.72
2023-01-22T00:16:07.562Z,0.65
2023-01-22T00:22:11.506Z,0.60
2023-01-22T00:28:13.481Z,0.70
2023-01-22T00:34:15.406Z,0.83
2023-01-22T00:40:18.150Z,0.82
2023-01-22T00:46:20.540Z,0.86
2023-01-22T00:52:22.447Z,0.82
2023-01-22T00:58:25.525Z,0.80
2023-01-22T01:04:27.468Z,0.76
2023-01-22T01:10:29.380Z,0.83
2023-01-22T01:16:32.480Z,0.83
2023-01-22T01:22:34.391Z,0.90
2023-01-22T01:28:38.072Z,0.92
2023-01-22T01:34:43.506Z,0.89
2023-01-22T01:40:45.507Z,0.91
2023-01-22T01:46:52.031Z,0.83
2023-01-22T01:52:54.452Z,0.85
2023-01-22T01:59:03.035Z,0.99
2023-01-22T02:05:06.541Z,1.02
2023-01-22T02:11:10.011Z,1.01
2023-01-22T02:17:16.466Z,0.90
2023-01-22T02:23:18.383Z,1.02
2023-01-22T02:29:20.330Z,0.93
2023-01-22T02:35:22.288Z,1.08
2023-01-22T02:41:25.211Z,1.08
2023-01-22T02:47:27.181Z,1.02
2023-01-22T02:53:29.143Z,1.24
2023-01-22T02:59:31.098Z,1.23
2023-01-22T03:05:35.687Z,1.13
2023-01-22T03:11:39.615Z,1.12
2023-01-22T03:18:00.258Z,1.24
2023-01-22T03:24:02.161Z,1.26
2023-01-22T03:30:04.718Z,1.31
2023-01-22T03:36:11.186Z,1.20
2023-01-22T03:42:13.125Z,1.23
2023-01-22T03:48:15.057Z,1.26
2023-01-22T03:54:17.294Z,1.36
2023-01-22T04:00:20.287Z,1.36
2023-01-22T04:06:24.213Z,1.23
2023-01-22T04:12:26.092Z,1.34
2023-01-22T04:18:28.415Z,1.42
2023-01-22T04:24:30.296Z,1.25
2023-01-22T04:30:32.522Z,1.38
2023-01-22T04:36:34.478Z,1.30
2023-01-22T04:42:36.423Z,1.36
2023-01-22T04:48:38.310Z,1.32
2023-01-22T04:54:40.224Z,1.40
2023-01-22T05:00:42.137Z,1.36
2023-01-22T05:06:44.017Z,1.36
2023-01-22T05:12:46.250Z,1.37
2023-01-22T05:18:48.186Z,1.31
2023-01-22T05:24:50.123Z,1.45
2023-01-22T05:30:52.210Z,1.35
2023-01-22T05:36:54.147Z,1.48
2023-01-22T05:42:56.092Z,1.41
2023-01-22T05:48:58.846Z,1.50
2023-01-22T05:55:01.891Z,1.71
2023-01-22T06:01:03.962Z,1.46
2023-01-22T06:07:05.843Z,1.35
2023-01-22T06:13:07.761Z,1.60
2023-01-22T06:19:10.122Z,1.35
2023-01-22T06:25:12.041Z,1.56
2023-01-22T06:31:14.026Z,1.44
2023-01-22T06:37:16.019Z,1.66
2023-01-22T06:43:17.931Z,1.59
2023-01-22T06:49:19.901Z,1.64
2023-01-22T06:55:21.774Z,1.60
2023-01-22T07:01:23.731Z,1.65
2023-01-22T07:07:25.733Z,1.81
2023-01-22T07:13:27.684Z,1.60
2023-01-22T07:19:29.592Z,1.52
2023-01-22T07:25:31.479Z,1.62
2023-01-22T07:31:33.352Z,1.76
2023-01-22T07:37:36.472Z,1.67
2023-01-22T07:43:38.425Z,1.54
2023-01-22T07:49:40.343Z,1.57
2023-01-22T07:55:42.354Z,1.55
2023-01-22T08:01:44.231Z,1.73
2023-01-22T08:07:46.273Z,1.56
2023-01-22T08:13:48.243Z,1.67
2023-01-22T08:19:50.162Z,1.76
2023-01-22T08:25:52.042Z,1.63
2023-01-22T08:31:54.085Z,1.84
2023-01-22T08:37:59.941Z,1.91
2023-01-22T08:44:02.012Z,1.95
2023-01-22T08:50:04.351Z,1.82
2023-01-22T08:56:06.856Z,1.88
2023-01-22T09:02:13.604Z,2.11
2023-01-22T09:08:15.611Z,2.26
2023-01-22T09:14:17.796Z,2.46
2023-01-22T09:20:20.005Z,2.41
2023-01-22T09:26:22.180Z,2.43
2023-01-22T09:32:24.088Z,2.54
2023-01-22T09:38:25.955Z,3.00
2023-01-22T09:44:44.129Z,2.99
2023-01-22T09:50:47.059Z,2.62
2023-01-22T09:56:52.877Z,2.61
2023-01-22T10:03:01.750Z,2.57
2023-01-22T10:09:16.037Z,2.95
2023-01-22T10:15:22.615Z,2.93
2023-01-22T10:21:32.395Z,3.08
2023-01-22T10:27:41.475Z,3.33
2023-01-22T10:33:45.185Z,3.44
2023-01-22T10:39:50.537Z,3.49
2023-01-22T10:45:59.492Z,3.78
2023-01-22T10:52:18.610Z,4.09
2023-01-22T10:58:23.185Z,4.02
2023-01-22T11:04:32.980Z,4.28
2023-01-22T11:11:00.311Z,4.26
2023-01-22T11:17:29.095Z,4.36
2023-01-22T11:23:46.668Z,3.99
2023-01-22T11:30:18.080Z,3.91
2023-01-22T11:36:42.846Z,3.86
2023-01-22T11:43:18.847Z,3.63
2023-01-22T11:50:31.821Z,3.43
2023-01-22T11:56:49.875Z,3.25
2023-01-22T12:03:10.101Z,3.20
2023-01-22T12:09:20.712Z,3.23
2023-01-22T12:15:38.327Z,3.12
2023-01-22T12:21:52.984Z,3.30
2023-01-22T12:28:03.996Z,3.39
2023-01-22T12:34:25.482Z,3.45
2023-01-22T12:40:48.706Z,3.61
2023-01-22T12:47:24.611Z,3.71
2023-01-22T12:53:30.340Z,3.69
2023-01-22T12:59:38.885Z,3.99
2023-01-22T13:05:45.522Z,3.72
2023-01-22T13:11:47.406Z,3.76
2023-01-22T13:18:28.092Z,3.51
2023-01-22T13:24:30.002Z,3.52
2023-01-22T13:30:32.308Z,3.49
2023-01-22T13:36:37.874Z,3.20
2023-01-22T13:42:45.790Z,3.16
2023-01-22T13:48:47.760Z,3.14
2023-01-22T13:55:12.315Z,3.15
2023-01-22T14:01:31.878Z,3.03
2023-01-22T14:07:39.604Z,2.61
2023-01-22T14:13:43.888Z,2.62
2023-01-22T14:19:46.669Z,2.56
2023-01-22T14:25:52.569Z,2.58
2023-01-22T14:31:54.519Z,2.41
2023-01-22T14:37:56.971Z,2.56
2023-01-22T14:43:58.872Z,2.68
2023-01-22T14:50:02.070Z,2.48
2023-01-22T14:56:05.091Z,2.41
2023-01-22T15:02:07.033Z,2.53
2023-01-22T15:08:08.980Z,2.35
2023-01-22T15:14:11.021Z,2.17
2023-01-22T15:20:13.191Z,2.28
2023-01-22T15:26:35.034Z,2.29
2023-01-22T15:32:36.980Z,2.24
2023-01-22T15:38:38.889Z,2.16
2023-01-22T15:44:41.106Z,2.20
2023-01-22T15:50:43.001Z,2.10
2023-01-22T15:56:45.077Z,2.13
2023-01-22T16:02:47.042Z,2.18
2023-01-22T16:08:50.477Z,2.15
2023-01-22T16:14:52.526Z,2.00
2023-01-22T16:20:54.444Z,2.18
2023-01-22T16:26:56.333Z,1.97
2023-01-22T16:32:58.306Z,2.07
2023-01-22T16:39:01.081Z,2.08
2023-01-22T16:45:03.137Z,2.07
2023-01-22T16:51:06.024Z,2.01
2023-01-22T16:57:09.646Z,1.98
2023-01-22T17:03:11.549Z,2.00
2023-01-22T17:09:18.460Z,2.08
2023-01-22T17:15:20.579Z,2.02
2023-01-22T17:21:22.792Z,2.06
2023-01-22T17:27:25.793Z,2.09
2023-01-22T17:33:28.735Z,2.11
2023-01-22T17:39:30.621Z,2.14
2023-01-22T17:45:32.518Z,1.99
2023-01-22T17:51:35.767Z,1.95
2023-01-22T17:57:37.678Z,2.08
2023-01-22T18:03:39.820Z,2.03
2023-01-22T18:09:41.734Z,2.02
2023-01-22T18:15:47.541Z,2.08
2023-01-22T18:21:50.174Z,2.08
2023-01-22T18:27:52.150Z,2.03
2023-01-22T18:34:03.512Z,2.09
2023-01-22T18:40:06.307Z,2.08
2023-01-22T18:46:12.084Z,2.06
2023-01-22T18:52:14.028Z,2.05
2023-01-22T18:58:27.629Z,2.05
2023-01-22T19:04:30.334Z,2.05
2023-01-22T19:10:32.653Z,2.01
2023-01-22T19:16:37.079Z,1.98
2023-01-22T19:22:38.964Z,2.00
2023-01-22T19:28:40.933Z,1.87
2023-01-22T19:34:43.400Z,1.86
2023-01-22T19:40:45.373Z,1.86
2023-01-22T19:46:47.385Z,1.90
2023-01-22T19:52:49.373Z,1.90
2023-01-22T19:58:56.815Z,1.85
2023-01-22T20:04:58.733Z,1.86
2023-01-22T20:11:01.427Z,1.84
2023-01-22T20:17:03.764Z,1.66
2023-01-22T20:23:05.659Z,1.83
2023-01-22T20:29:07.611Z,1.73
2023-01-22T20:35:11.771Z,1.75
2023-01-22T20:41:14.660Z,1.71
2023-01-22T20:47:16.615Z,1.73
2023-01-22T20:53:19.830Z,1.79
2023-01-22T20:59:23.526Z,1.77
2023-01-22T21:05:25.429Z,1.86
2023-01-22T21:11:30.917Z,1.86
2023-01-22T21:17:32.830Z,2.01
2023-01-22T21:23:36.973Z,1.83
2023-01-22T21:29:39.856Z,1.73
2023-01-22T21:35:49.550Z,1.90
2023-01-22T21:41:52.039Z,1.63
2023-01-22T21:47:53.935Z,1.69
2023-01-22T21:53:57.460Z,1.86
2023-01-22T21:59:59.364Z,1.69
2023-01-22T22:06:02.499Z,1.70
2023-01-22T22:12:05.688Z,1.95
2023-01-22T22:18:07.797Z,1.84
2023-01-22T22:24:11.000Z,1.70
2023-01-22T22:30:13.522Z,1.65
2023-01-22T22:36:19.348Z,1.59
2023-01-22T22:42:21.248Z,1.55
2023-01-22T22:48:23.156Z,1.60
2023-01-22T22:54:25.108Z,1.59
2023-01-22T23:00:27.089Z,1.47
2023-01-22T23:06:33.329Z,1.53
2023-01-22T23:12:35.289Z,1.47
2023-01-22T23:18:37.383Z,1.45
2023-01-22T23:24:39.565Z,1.78
2023-01-22T23:30:41.533Z,1.74
2023-01-22T23:36:45.793Z,1.75
2023-01-22T23:42:49.487Z,1.75
2023-01-22T23:48:52.733Z,1.87
2023-01-22T23:54:54.617Z,1.88
